^^
Meteo Knjazevac Station Historical Data
Daily Summary for May 09, 2021 Units:  English    Metric   Both
Daily Weekly Monthly Yearly Custom
  High: Low: Average:
Temperature: 41.9 °F 32.2 °F 34.5 °F
Dew Point: 34.6 °F 29 °F 30.8 °F
Humidity: 90% 75% 86%
Wind Speed: 3mph 0mph 1.2mph
Wind Gust: 6mph - -
Wind- - West
Pressure: 30.31 in 30.26 in -
Precipitation: 0.00 in    
Historical Graphs
 
 
Tabular Data for May 09, 2021
Time Temperature Dew Point Pressure Wind Wind Speed Wind Gust Humidity Rainfall Rate (Hourly) solar Conditions
00:00 41.9 °F 34.6 °F 30.26 in SW 2 mph 4 mph 75% 0.00 in 0 W/m2
01:40 36.9 °F 31.6 °F 30.27 in West 2 mph 5 mph 81% 0.00 in 0 W/m2
01:50 36.5 °F 31.8 °F 30.27 in WNW 3 mph 6 mph 83% 0.00 in 0 W/m2
02:00 36.6 °F 32.3 °F 30.27 in WNW 2 mph 6 mph 84% 0.00 in 0 W/m2
02:10 36.5 °F 31.8 °F 30.27 in WSW 1 mph 3 mph 83% 0.00 in 0 W/m2
02:20 36.3 °F 31.9 °F 30.27 in West 2 mph 4 mph 84% 0.00 in 0 W/m2
02:30 36.1 °F 31.8 °F 30.27 in Calm   4 mph 84% 0.00 in 0 W/m2
02:40 36 °F 31.6 °F 30.27 in WNW 2 mph 3 mph 84% 0.00 in 0 W/m2
02:50 35.6 °F 31.2 °F 30.27 in West 1 mph 3 mph 84% 0.00 in 0 W/m2
03:00 35.2 °F 30.9 °F 30.27 in Calm   4 mph 84% 0.00 in 0 W/m2
03:10 35.1 °F 30.7 °F 30.27 in West 2 mph 3 mph 84% 0.00 in 0 W/m2
04:20 33.6 °F 29.9 °F 30.28 in WNW 1 mph 2 mph 86% 0.00 in 0 W/m2
04:30 33.4 °F 29.7 °F 30.28 in WNW 1 mph 2 mph 86% 0.00 in 0 W/m2
04:40 32.9 °F 29.2 °F 30.28 in West 1 mph 2 mph 86% 0.00 in 0 W/m2
04:50 32.7 °F 29.6 °F 30.28 in Calm   2 mph 88% 0.00 in 0 W/m2
05:00 32.7 °F 29.6 °F 30.28 in WNW 2 mph 3 mph 88% 0.00 in 0 W/m2
05:10 32.7 °F 29.6 °F 30.28 in WNW 1 mph 3 mph 88% 0.00 in 0 W/m2
05:20 32.9 °F 30 °F 30.29 in NW 1 mph 2 mph 89% 0.00 in 7 W/m2
05:30 32.5 °F 29.4 °F 30.29 in WNW 2 mph 3 mph 88% 0.00 in 14 W/m2
05:40 32.4 °F 29.2 °F 30.29 in West 1 mph 3 mph 88% 0.00 in 20 W/m2
05:50 32.2 °F 29 °F 30.30 in WNW 2 mph 3 mph 88% 0.00 in 30 W/m2
06:00 32.2 °F 29.3 °F 30.30 in WNW 1 mph 3 mph 89% 0.00 in 60 W/m2
06:10 32.2 °F 29.3 °F 30.30 in WNW 1 mph 2 mph 89% 0.00 in 42 W/m2
06:20 32.4 °F 29.5 °F 30.30 in Calm   2 mph 89% 0.00 in 100 W/m2
06:30 32.5 °F 29.7 °F 30.30 in Calm   2 mph 89% 0.00 in 134 W/m2
06:40 32.9 °F 30 °F 30.30 in Calm   2 mph 89% 0.00 in 161 W/m2
06:50 33.4 °F 30.8 °F 30.31 in Calm   1 mph 90% 0.00 in 196 W/m2
07:00 34.2 °F 31.5 °F 30.31 in West 2 mph 4 mph 90% 0.00 in 222 W/m2
07:10 35.2 °F 32.6 °F 30.31 in WNW 1 mph 5 mph 90% 0.00 in 252 W/m2
07:20 36.2 °F 33.3 °F 30.31 in WNW 3 mph 5 mph 89% 0.00 in 293 W/m2
07:30 37.2 °F 34.3 °F 30.31 in WNW 1 mph 5 mph 89% 0.00 in 326 W/m2
Knjazevac, Serbia
Compliments of Weather Underground - 2 mb